Airfield :
LOGIN :

Register | Disclaimer

   EN    FR    IT 

 










Legend :    VFR   Marginal VFR   IFR   Intensive IFR   Very Intensive IFR
Visi :
Ceiling :
>= 8 km
>= 3000ft
5 to 8 km
1000 to 3000 ft
1500m to 5 km
500 to 1000 ft
800 to 1500m
200 to 500 ft
< 800m
< 200 ft
Symbols :   Thunderstorms  Fog  Heavy snow  Heavy precipitations  Wind > 20 kt
SIGMETs :     Misc.  Thunderstorms  Icing  Turbulence  Mountain Waves  Volcanic Ashes







- Airport Elevation : 364 ft
- IATA code : FRA


EDDF - Frankfurt Int.

CURRENT METAR :
  • 241550Z 07009KT 9999 FEW032CB BKN270 23/14 Q1016 NOSIG

EXPIRED METARs :
  • 241520Z 05008KT 9999 FEW028CB BKN270 22/14 Q1017 NOSIG
  • 241450Z 05009KT 030V090 9999 FEW028CB SCT070 BKN300 24/15 Q1017 NOSIG
  • 241350Z 05008KT 020V100 9999 FEW027CB SCT030 BKN300 22/15 Q1017 NOSIG
  • 241320Z 06008KT 010V090 9999 FEW027CB BKN060 21/14 Q1017 NOSIG
  • 241250Z 05007KT 010V080 9999 FEW024CB SCT046 BKN060 21/14 Q1018 NOSIG

TAF TAF EDDF
Valid from the 24 at 12:00 until the 25 at 18:00 UTC


241100Z 2412/2518 07007KT 9999 SCT030
PROB40
TEMPO 2412/2420 TSRA BKN030CB
PROB30
TEMPO 2500/2507 BKN004
No reported NOTAMs for that airfield.



MET'MAP, your aeronautical weather chart ! - Copyright ORBIFLY December 2007 - Disclaimer

ORBIFLY MET'MAP TEAM :

Programming & Development : Alexandra Zaïnal
Concept & Development : Baudouin d'Aumeries
Co-Development & Prog : Marc-Olivier Méhu
Technical & hardware support : Manuel Goepfert

Contact : metmap@orbifly.com




SOURCES & CREDITS :

   NOAA